M I D A S
Marine Information and Data Acquisition System
Tripno 968 of the Zeeleeuw from 2005-10-06 06:43:35 to 2005-10-06 14:53:27
Back to CruiseResearch ActivitiesStationsMapUnderway DataData graphs

EquipmentUnitsComment
TimeDGPSUTC
LatitudeDGPSDM.mWGS84
LongitudeDGPSDM.mWGS84
TemperatureSBE03/SBE38deg celciusITS90
ConductivitySBE21S/mITS90
SalinitySBE21 Practical Salinity Units
ChlorophylAChelsea fluorimeterg/lCalibrated in Aceton
Missing or incorrect values are displayed as -999
Sea surface data collected by the RV Zeeleeuw from 2005-10-06 06:26:14 to 2005-10-06 14:53:04
Time Latitude Longitude Temperature Conductivity Salinity ChlorophylA
2005-10-06 06:27:20 51°13.605 2°56.066 -999 0.012608 0.069796 -0.444155
2005-10-06 06:28:20 51°13.595 2°56.076 -999 0.012608 0.069794 -0.444155
2005-10-06 06:29:19 51°13.561 2°56.113 -999 0.012608 0.069799 -0.444155
2005-10-06 06:30:19 51°13.535 2°56.185 -999 0.012608 0.069802 -0.444155
2005-10-06 06:31:19 51°13.539 2°56.223 -999 0.012608 0.069806 -0.444155
2005-10-06 06:32:19 51°13.55 2°56.237 -999 0.012608 0.069808 -0.444155
2005-10-06 06:33:19 51°13.526 2°56.233 -999 0.012608 0.069811 -0.444155
2005-10-06 06:34:19 51°13.548 2°56.195 -999 0.012608 0.069814 -0.444155
2005-10-06 06:35:19 51°13.564 2°56.123 -999 0.012608 0.069818 -0.444155
2005-10-06 06:36:19 51°13.569 2°56.094 -999 0.012608 0.069821 -0.444155
2005-10-06 06:37:19 51°13.582 2°56.058 -999 0.012608 0.069826 -0.444155
2005-10-06 06:38:19 51°13.606 2°56.008 -999 0.012608 0.069829 -0.444155
2005-10-06 06:39:19 51°13.616 2°55.99 -999 0.012608 0.069833 -0.444155
2005-10-06 06:40:19 51°13.614 2°55.994 -999 0.012608 0.069836 -0.444155
2005-10-06 06:41:19 51°13.615 2°55.989 -999 0.012608 0.06984 -0.444155
2005-10-06 06:42:19 51°13.626 2°55.963 -999 0.012608 0.069843 -0.444155
2005-10-06 06:43:19 51°13.647 2°55.915 -999 0.012505 0.069311 -0.444155
2005-10-06 06:44:19 51°13.672 2°55.861 -999 0.012505 0.069313 -0.444155
2005-10-06 06:45:19 51°13.699 2°55.806 -999 0.012505 0.069316 -0.444155
2005-10-06 06:46:19 51°13.728 2°55.758 -999 0.012505 0.069319 -0.444155
2005-10-06 06:47:19 51°13.765 2°55.689 -999 0.012505 0.069322 -0.444155
2005-10-06 06:48:19 51°13.831 2°55.625 -999 0.012505 0.069324 -0.444155
2005-10-06 06:49:19 51°13.911 2°55.578 -999 0.012505 0.069327 -0.444155
2005-10-06 06:50:19 51°13.941 2°55.56 -999 0.012505 0.069329 -0.444155
2005-10-06 06:51:19 51°13.995 2°55.523 -999 0.012505 0.069332 -0.444155
2005-10-06 06:52:19 51°14.073 2°55.466 -999 0.012505 0.069335 -0.444155
2005-10-06 06:53:19 51°14.17 2°55.38 -999 0.012505 0.069339 -0.444155
2005-10-06 06:54:19 51°14.272 2°55.252 -999 0.012505 0.069343 -0.444155
2005-10-06 06:55:19 51°14.355 2°55.081 -999 0.012505 0.069348 -0.444155
2005-10-06 06:56:19 51°14.417 2°54.883 -999 0.012505 0.069353 -0.444155
2005-10-06 06:57:19 51°14.47 2°54.641 -999 0.012505 0.069358 -0.444155
2005-10-06 06:58:19 51°14.535 2°54.354 -999 0.012505 0.069365 -0.444155
2005-10-06 06:59:19 51°14.606 2°54.048 -999 0.012505 0.06937 -0.444155
2005-10-06 07:00:19 51°14.683 2°53.734 -999 0.012505 0.069376 -0.444155
2005-10-06 07:01:19 51°14.715 2°53.403 -999 0.012505 0.069382 -0.444155
2005-10-06 07:02:19 51°14.695 2°53.056 -999 0.012505 0.069386 -0.444155
2005-10-06 07:03:19 51°14.683 2°52.705 -999 0.012505 0.069392 -0.444155
2005-10-06 07:04:19 51°14.646 2°52.357 -999 0.012505 0.069397 -0.444155
2005-10-06 07:05:19 51°14.587 2°52.018 -999 0.012505 0.069401 -0.444155
2005-10-06 07:06:19 51°14.529 2°51.727 -999 0.012505 0.069406 -0.444155
2005-10-06 07:07:19 51°14.484 2°51.524 -999 0.012505 0.069409 -0.444155
2005-10-06 07:08:19 51°14.45 2°51.364 -999 0.012505 0.069413 -0.444155
2005-10-06 07:09:19 51°14.424 2°51.244 -999 0.012505 0.069416 -0.444155
2005-10-06 07:10:19 51°14.399 2°51.144 -999 4.181889 31.400424 -0.545283
2005-10-06 07:11:19 51°14.377 2°51.056 -999 4.026606 31.746332 -0.680121
2005-10-06 07:12:19 51°14.356 2°50.976 -999 4.021217 31.815851 -0.71383
2005-10-06 07:13:19 51°14.336 2°50.9 -999 4.034902 31.986296 -0.71383
2005-10-06 07:14:19 51°14.315 2°50.826 -999 4.032414 31.998193 -0.71383
2005-10-06 07:15:19 51°14.295 2°50.755 -999 4.032104 32.01208 -0.71383
2005-10-06 07:16:19 51°14.275 2°50.684 -999 4.031896 32.023568 -0.71383
2005-10-06 07:17:19 51°14.255 2°50.614 -999 4.034177 32.055774 -0.680121
2005-10-06 07:18:19 51°14.235 2°50.545 -999 4.03511 32.068714 -0.680121
2005-10-06 07:19:19 51°14.215 2°50.476 -999 4.035007 32.071135 -0.680121
2005-10-06 07:20:19 51°14.196 2°50.408 -999 4.036458 32.09135 -0.680121
2005-10-06 07:21:19 51°14.176 2°50.339 -999 4.033452 32.063365 -0.680121
2005-10-06 07:22:19 51°14.157 2°50.27 -999 4.036665 32.094525 -0.680121
2005-10-06 07:23:19 51°14.137 2°50.202 -999 4.038532 32.121776 -0.646411
2005-10-06 07:24:19 51°14.118 2°50.133 -999 4.039983 32.133309 -0.680121
2005-10-06 07:25:19 51°14.099 2°50.066 -999 4.041745 32.153631 -0.646411
2005-10-06 07:26:19 51°14.079 2°49.998 -999 4.042471 32.163421 -0.646411
2005-10-06 07:27:19 51°14.061 2°49.932 -999 4.044026 32.179902 -0.646411
2005-10-06 07:28:19 51°14.042 2°49.865 -999 4.045892 32.197803 -0.612702
2005-10-06 07:29:19 51°14.024 2°49.798 -999 4.046825 32.212129 -0.612702
2005-10-06 07:30:19 51°14.006 2°49.732 -999 4.049417 32.233791 -0.612702
2005-10-06 07:31:19 51°13.987 2°49.665 -999 4.050142 32.243595 -0.612702
2005-10-06 07:32:19 51°13.968 2°49.599 -999 4.049209 32.23464 -0.612702
2005-10-06 07:33:19 51°13.949 2°49.533 -999 4.052216 32.262005 -0.612702
2005-10-06 07:34:19 51°13.93 2°49.465 -999 4.051905 32.25857 -0.612702
2005-10-06 07:35:19 51°13.91 2°49.392 -999 4.053978 32.282367 -0.612702
2005-10-06 07:36:19 51°13.89 2°49.314 -999 4.054393 32.288745 -0.612702
2005-10-06 07:37:19 51°13.871 2°49.235 -999 4.056777 32.311272 -0.612702
2005-10-06 07:38:19 51°13.851 2°49.156 -999 4.058332 32.324412 -0.646411
2005-10-06 07:39:19 51°13.832 2°49.08 -999 4.05968 32.339759 -0.646411
2005-10-06 07:40:19 51°13.813 2°49.005 -999 4.06165 32.357936 -0.646411
2005-10-06 07:41:19 51°13.794 2°48.932 -999 4.063516 32.373843 -0.646411
2005-10-06 07:42:19 51°13.774 2°48.859 -999 4.065589 32.38889 -0.680121
2005-10-06 07:43:19 51°13.755 2°48.788 -999 4.066626 32.398779 -0.680121
2005-10-06 07:44:19 51°13.735 2°48.707 -999 4.067663 32.412726 -0.680121
2005-10-06 07:45:19 51°13.719 2°48.615 -999 4.068388 32.42053 -0.680121
2005-10-06 07:46:19 51°13.707 2°48.517 -999 4.069322 32.432209 -0.680121
2005-10-06 07:47:19 51°13.698 2°48.414 -999 4.070773 32.446468 -0.680121
2005-10-06 07:48:19 51°13.69 2°48.322 -999 4.072846 32.463549 -0.680121
2005-10-06 07:49:19 51°13.68 2°48.241 -999 4.075024 32.484264 -0.680121
2005-10-06 07:50:19 51°13.67 2°48.169 -999 4.076682 32.496981 -0.680121
2005-10-06 07:51:19 51°13.688 2°48.069 -999 4.078237 32.503347 -0.680121
2005-10-06 07:52:19 51°13.742 2°48.081 -999 4.079896 32.511312 -0.71383
2005-10-06 07:53:19 51°13.771 2°48.159 -999 4.075645 32.476915 -0.74754
2005-10-06 07:54:19 51°13.801 2°48.236 -999 4.074712 32.469298 -0.74754
2005-10-06 07:55:19 51°13.827 2°48.304 -999 4.072535 32.449946 -0.74754
2005-10-06 07:56:19 51°13.85 2°48.363 -999 4.06901 32.415911 -0.74754
2005-10-06 07:57:19 51°13.882 2°48.404 -999 4.062479 32.355853 -0.74754
2005-10-06 07:58:19 51°13.915 2°48.449 -999 4.054393 32.278643 -0.781249
2005-10-06 07:59:19 51°13.948 2°48.503 -999 4.053356 32.266746 -0.74754
2005-10-06 08:00:19 51°13.981 2°48.557 -999 4.05346 32.267666 -0.71383
2005-10-06 08:01:19 51°14.015 2°48.611 -999 4.049728 32.235207 -0.71383
2005-10-06 08:02:19 51°14.049 2°48.666 -999 4.048795 32.227597 -0.71383
2005-10-06 08:03:19 51°14.082 2°48.72 -999 4.048898 32.229862 -0.71383
2005-10-06 08:04:19 51°14.114 2°48.776 -999 4.046099 32.207031 -0.71383
2005-10-06 08:05:19 51°14.145 2°48.835 -999 4.044752 32.194396 -0.680121
2005-10-06 08:06:19 51°14.174 2°48.896 -999 4.042056 32.165778 -0.680121
2005-10-06 08:07:19 51°14.201 2°48.958 -999 4.040501 32.151309 -0.680121
2005-10-06 08:08:19 51°14.229 2°49.019 -999 4.036458 32.116108 -0.680121
2005-10-06 08:09:19 51°14.256 2°49.079 -999 4.032001 32.073889 -0.680121
2005-10-06 08:10:19 51°14.283 2°49.136 -999 4.029202 32.045057 -0.680121
2005-10-06 08:11:19 51°14.309 2°49.192 -999 4.027232 32.026257 -0.680121
2005-10-06 08:12:19 51°14.336 2°49.247 -999 4.026818 32.019911 -0.71383
2005-10-06 08:13:19 51°14.362 2°49.302 -999 4.026196 32.011728 -0.71383
2005-10-06 08:14:19 51°14.389 2°49.357 -999 4.02547 32.005296 -0.71383
2005-10-06 08:15:19 51°14.415 2°49.413 -999 4.024433 31.99144 -0.74754
2005-10-06 08:16:19 51°14.442 2°49.47 -999 4.023086 31.976832 -0.781249
2005-10-06 08:17:19 51°14.468 2°49.527 -999 4.02236 31.967738 -0.781249
2005-10-06 08:18:19 51°14.495 2°49.584 -999 4.020598 31.951459 -0.781249
2005-10-06 08:19:19 51°14.522 2°49.641 -999 4.020701 31.949049 -0.781249
2005-10-06 08:20:19 51°14.549 2°49.698 -999 4.017384 31.918337 -0.814958
2005-10-06 08:21:19 51°14.575 2°49.755 -999 4.013756 31.884213 -0.814958
2005-10-06 08:22:19 51°14.602 2°49.811 -999 4.01189 31.862382 -0.814958
2005-10-06 08:23:19 51°14.629 2°49.867 -999 4.011372 31.852488 -0.814958
2005-10-06 08:24:19 51°14.655 2°49.924 -999 4.01189 31.855086 -0.814958
2005-10-06 08:25:19 51°14.682 2°49.981 -999 4.011786 31.853506 -0.814958
2005-10-06 08:26:19 51°14.708 2°50.038 -999 4.010646 31.8401 -0.814958
2005-10-06 08:27:19 51°14.735 2°50.097 -999 4.010231 31.834443 -0.814958
2005-10-06 08:28:19 51°14.759 2°50.158 -999 4.009921 31.832354 -0.814958
2005-10-06 08:29:19 51°14.779 2°50.222 -999 4.01075 31.835717 -0.814958
2005-10-06 08:30:19 51°14.798 2°50.287 -999 4.011164 31.841373 -0.814958
2005-10-06 08:31:19 51°14.804 2°50.364 -999 4.010128 31.822268 -0.814958
2005-10-06 08:32:19 51°14.801 2°50.442 -999 4.01189 31.839843 -0.781249
2005-10-06 08:33:19 51°14.791 2°50.503 -999 4.012408 31.847078 -0.781249
2005-10-06 08:34:19 51°14.784 2°50.532 -999 4.009713 31.813306 -0.814958
2005-10-06 08:35:19 51°14.779 2°50.541 -999 4.006914 31.783267 -0.848668
2005-10-06 08:36:19 51°14.773 2°50.539 -999 4.006396 31.77406 -0.848668
2005-10-06 08:37:19 51°14.765 2°50.53 -999 4.006292 31.771823 -0.848668
2005-10-06 08:38:19 51°14.755 2°50.515 -999 4.006085 31.768669 -0.848668
2005-10-06 08:39:19 51°14.743 2°50.496 -999 4.006499 31.773655 -0.848668
2005-10-06 08:40:19 51°14.737 2°50.489 -999 4.006603 31.777214 -0.848668
2005-10-06 08:41:19 51°14.787 2°50.504 -999 4.005981 31.777002 -0.848668
2005-10-06 08:42:19 51°14.84 2°50.327 -999 4.004115 31.755883 -0.882377
2005-10-06 08:43:19 51°14.831 2°49.989 -999 4.006603 31.77325 -0.814958
2005-10-06 08:44:19 51°14.822 2°49.612 -999 4.018006 31.885331 -0.74754
2005-10-06 08:45:19 51°14.816 2°49.233 -999 4.020182 31.895302 -0.814958
2005-10-06 08:46:19 51°14.809 2°48.855 -999 4.029615 31.972102 -0.814958
2005-10-06 08:47:19 51°14.802 2°48.475 -999 4.036665 32.03913 -0.814958
2005-10-06 08:48:19 51°14.797 2°48.097 -999 4.040396 32.068825 -0.814958
2005-10-06 08:49:19 51°14.783 2°47.72 -999 4.049934 32.151912 -0.814958
2005-10-06 08:50:19 51°14.744 2°47.343 -999 4.058953 32.237137 -0.848668
2005-10-06 08:51:19 51°14.703 2°46.959 -999 4.069112 32.326477 -0.882377
2005-10-06 08:52:19 51°14.662 2°46.577 -999 4.073052 32.362736 -0.882377
2005-10-06 08:53:19 51°14.62 2°46.202 -999 4.075437 32.390607 -0.882377
2005-10-06 08:54:19 51°14.583 2°45.837 -999 4.080931 32.445403 -0.882377
2005-10-06 08:55:19 51°14.552 2°45.48 -999 4.092232 32.553109 -0.848668
2005-10-06 08:56:19 51°14.532 2°45.105 -999 4.099905 32.63752 -0.814958
2005-10-06 08:57:19 51°14.504 2°44.719 -999 4.113279 32.755676 -0.781249
2005-10-06 08:58:19 51°14.479 2°44.331 -999 4.124581 32.841091 -0.848668
2005-10-06 08:59:19 51°14.45 2°43.944 -999 4.136608 32.92813 -0.882377
2005-10-06 09:00:19 51°14.425 2°43.554 -999 4.147391 33.002691 -0.916087
2005-10-06 09:01:19 51°14.396 2°43.164 -999 4.148946 33.013763 -0.916087
2005-10-06 09:02:19 51°14.364 2°42.771 -999 4.151331 33.028772 -0.916087
2005-10-06 09:03:19 51°14.332 2°42.379 -999 4.153405 33.047882 -0.916087
2005-10-06 09:04:19 51°14.301 2°41.991 -999 4.157345 33.054724 -0.916087
2005-10-06 09:05:19 51°14.273 2°41.605 -999 4.159834 33.089873 -0.916087
2005-10-06 09:06:19 51°14.241 2°41.219 -999 4.166263 33.147672 -0.916087
2005-10-06 09:07:19 51°14.21 2°40.835 -999 4.176425 33.231763 -0.882377
2005-10-06 09:08:19 51°14.18 2°40.453 -999 4.18555 33.314947 -0.882377
2005-10-06 09:09:19 51°14.152 2°40.073 -999 4.193017 33.38411 -0.882377
2005-10-06 09:10:19 51°14.123 2°39.695 -999 4.198513 33.434386 -0.916087
2005-10-06 09:11:19 51°14.096 2°39.318 -999 4.202557 33.473845 -0.916087
2005-10-06 09:12:19 51°14.068 2°38.942 -999 4.208053 33.519276 -0.916087
2005-10-06 09:13:19 51°14.041 2°38.567 -999 4.215624 33.584565 -0.916087
2005-10-06 09:14:19 51°14.015 2°38.185 -999 4.229832 33.697768 -0.916087
2005-10-06 09:15:19 51°13.988 2°37.799 -999 4.242795 33.79777 -0.916087
2005-10-06 09:16:19 51°13.962 2°37.409 -999 4.256174 33.899325 -0.916087
2005-10-06 09:17:19 51°13.938 2°37.012 -999 4.260737 33.927992 -0.949796
2005-10-06 09:18:19 51°13.856 2°36.649 -999 4.261048 33.931465 -0.949796
2005-10-06 09:19:19 51°13.704 2°36.335 -999 4.260841 33.925396 -0.949796
2005-10-06 09:20:19 51°13.551 2°36.022 -999 4.280132 34.068206 -0.949796
2005-10-06 09:21:19 51°13.398 2°35.711 -999 4.29206 34.153868 -0.949796
2005-10-06 09:22:19 51°13.245 2°35.402 -999 4.30627 34.252696 -0.949796
2005-10-06 09:23:19 51°13.09 2°35.09 -999 4.312389 34.286577 -0.949796
2005-10-06 09:24:19 51°12.926 2°34.797 -999 4.320169 34.335896 -0.949796
2005-10-06 09:25:19 51°12.737 2°34.553 -999 4.330645 34.406313 -0.949796
2005-10-06 09:26:19 51°12.548 2°34.311 -999 4.340811 34.464668 -0.949796
2005-10-06 09:27:19 51°12.36 2°34.07 -999 4.349835 34.517091 -0.949796
2005-10-06 09:28:19 51°12.169 2°33.837 -999 4.355644 34.55515 -0.949796
2005-10-06 09:29:19 51°11.983 2°33.601 -999 4.356682 34.560089 -0.949796
2005-10-06 09:30:19 51°11.861 2°33.462 -999 4.357512 34.564609 -0.949796
2005-10-06 09:31:19 51°11.79 2°33.359 -999 4.358134 34.56444 -0.949796
2005-10-06 09:32:19 51°11.745 2°33.267 -999 4.358341 34.563435 -0.983506
2005-10-06 09:33:19 51°11.703 2°33.193 -999 4.358549 34.563853 -0.949796
2005-10-06 09:34:19 51°11.663 2°33.127 -999 4.358964 34.561844 -0.949796
2005-10-06 09:35:19 51°11.62 2°33.063 -999 4.359275 34.566028 -0.983506
2005-10-06 09:36:19 51°11.582 2°33.002 -999 4.359794 34.565651 -0.983506
2005-10-06 09:37:19 51°11.546 2°32.942 -999 4.35969 34.561885 -0.949796
2005-10-06 09:38:19 51°11.512 2°32.88 -999 4.360312 34.565985 -0.983506
2005-10-06 09:39:19 51°11.477 2°32.818 -999 4.360727 34.56611 -0.949796
2005-10-06 09:40:19 51°11.443 2°32.755 -999 4.360831 34.564897 -0.983506
2005-10-06 09:41:19 51°11.409 2°32.694 -999 4.361038 34.563893 -0.983506
2005-10-06 09:42:20 51°11.373 2°32.632 -999 4.361142 34.563391 -0.949796
2005-10-06 09:43:19 51°11.339 2°32.573 -999 4.361453 34.564018 -0.949796
2005-10-06 09:44:19 51°11.304 2°32.512 -999 4.361557 34.564938 -0.949796
2005-10-06 09:45:19 51°11.269 2°32.451 -999 4.361764 34.563935 -0.949796
2005-10-06 09:46:19 51°11.234 2°32.391 -999 4.361972 34.565775 -0.983506
2005-10-06 09:47:19 51°11.199 2°32.33 -999 4.361972 34.563642 -0.949796
2005-10-06 09:48:19 51°11.164 2°32.269 -999 4.362075 34.563141 -0.949796
2005-10-06 09:49:19 51°11.13 2°32.208 -999 4.362387 34.563768 -0.983506
2005-10-06 09:50:19 51°11.095 2°32.147 -999 4.362387 34.564479 -0.949796
2005-10-06 09:51:19 51°11.06 2°32.086 -999 4.362283 34.563559 -0.949796
2005-10-06 09:52:19 51°11.025 2°32.024 -999 4.36249 34.563977 -0.983506
2005-10-06 09:53:19 51°10.99 2°31.963 -999 4.36249 34.563267 -0.949796
2005-10-06 09:54:19 51°10.955 2°31.901 -999 4.362387 34.5659 -0.949796
2005-10-06 09:55:19 51°10.92 2°31.838 -999 4.362387 34.5659 -0.983506
2005-10-06 09:56:19 51°10.884 2°31.778 -999 4.36249 34.565399 -0.983506
2005-10-06 09:57:19 51°10.851 2°31.714 -999 4.362179 34.566193 -0.983506
2005-10-06 09:58:19 51°10.817 2°31.649 -999 4.361972 34.566486 -0.949796
2005-10-06 09:59:19 51°10.784 2°31.584 -999 4.361972 34.564353 -0.949796
2005-10-06 10:00:19 51°10.751 2°31.518 -999 4.362075 34.565273 -0.983506
2005-10-06 10:01:19 51°10.718 2°31.453 -999 4.360727 34.554025 -0.983506
2005-10-06 10:02:19 51°10.683 2°31.389 -999 4.361038 34.555363 -0.949796
2005-10-06 10:03:19 51°10.65 2°31.32 -999 4.360727 34.553314 -0.983506
2005-10-06 10:04:19 51°10.62 2°31.222 -999 4.361972 34.562932 -0.983506
2005-10-06 10:05:19 51°10.602 2°31.108 -999 4.360934 34.553022 -0.983506
2005-10-06 10:06:19 51°10.585 2°30.989 -999 4.361972 34.565775 -0.949796
2005-10-06 10:07:19 51°10.563 2°30.865 -999 4.361661 34.565858 -0.949796
2005-10-06 10:08:19 51°10.535 2°30.759 -999 4.36052 34.567114 -0.983506
2005-10-06 10:09:19 51°10.503 2°30.677 -999 4.359171 34.565108 -0.983506
2005-10-06 10:10:19 51°10.468 2°30.611 -999 4.358341 34.5613 -0.983506
2005-10-06 10:11:19 51°10.415 2°30.534 -999 4.357511 34.558916 -0.949796
2005-10-06 10:12:19 51°10.33 2°30.45 -999 4.3572 34.556865 -0.949796
2005-10-06 10:13:19 51°10.266 2°30.502 -999 4.356682 34.557954 -0.949796
2005-10-06 10:14:19 51°10.3 2°30.569 -999 4.357926 34.561887 -0.983506
2005-10-06 10:15:19 51°10.35 2°30.608 -999 4.359794 34.564228 -0.949796
2005-10-06 10:16:19 51°10.383 2°30.663 -999 4.360416 34.559794 -0.983506
2005-10-06 10:17:19 51°10.415 2°30.711 -999 4.360416 34.560505 -0.949796
2005-10-06 10:18:19 51°10.454 2°30.749 -999 4.360416 34.56406 -0.983506
2005-10-06 10:19:19 51°10.487 2°30.799 -999 4.35969 34.561885 -0.949796
2005-10-06 10:20:19 51°10.521 2°30.847 -999 4.359067 34.563476 -0.949796
2005-10-06 10:21:19 51°10.558 2°30.891 -999 4.359067 34.564187 -0.983506
2005-10-06 10:22:20 51°10.594 2°30.934 -999 4.358653 34.564062 -0.983506
2005-10-06 10:23:19 51°10.63 2°30.977 -999 4.358238 34.562514 -0.983506
2005-10-06 10:24:19 51°10.666 2°31.021 -999 4.357823 34.562389 -0.949796
2005-10-06 10:25:19 51°10.703 2°31.065 -999 4.357823 34.560966 -0.983506
2005-10-06 10:26:19 51°10.739 2°31.108 -999 4.357926 34.561887 -0.949796
2005-10-06 10:27:19 51°10.773 2°31.156 -999 4.357719 34.560046 -0.983506
2005-10-06 10:28:19 51°10.805 2°31.205 -999 4.357512 34.560339 -0.983506
2005-10-06 10:29:19 51°10.839 2°31.255 -999 4.357512 34.559627 -0.983506
2005-10-06 10:30:20 51°10.874 2°31.306 -999 4.357097 34.558079 -0.983506
2005-10-06 10:31:19 51°10.907 2°31.354 -999 4.356889 34.555526 -0.983506
2005-10-06 10:32:20 51°10.942 2°31.405 -999 4.356993 34.55787 -0.983506
2005-10-06 10:33:19 51°10.977 2°31.456 -999 4.357097 34.557368 -0.949796
2005-10-06 10:34:19 51°11.013 2°31.507 -999 4.357097 34.560214 -0.949796
2005-10-06 10:35:20 51°11.049 2°31.558 -999 4.357304 34.560632 -0.949796
2005-10-06 10:36:19 51°11.082 2°31.61 -999 4.357823 34.560966 -0.983506
2005-10-06 10:37:19 51°11.115 2°31.663 -999 4.358341 34.562723 -0.983506
2005-10-06 10:38:19 51°11.147 2°31.716 -999 4.35886 34.563769 -0.983506
2005-10-06 10:39:19 51°11.178 2°31.773 -999 4.359379 34.565526 -0.983506
2005-10-06 10:40:19 51°11.207 2°31.833 -999 4.359379 34.566237 -0.983506
2005-10-06 10:41:19 51°11.238 2°31.892 -999 4.359275 34.566028 -0.983506
2005-10-06 10:42:19 51°11.269 2°31.952 -999 4.35803 34.554271 -0.983506
2005-10-06 10:43:19 51°11.299 2°32.012 -999 4.356993 34.53938 -0.983506
2005-10-06 10:44:19 51°11.33 2°32.073 -999 4.360001 34.566069 -0.983506
2005-10-06 10:45:19 51°11.363 2°32.134 -999 4.358134 34.549503 -0.983506
2005-10-06 10:46:19 51°11.396 2°32.196 -999 4.357719 34.545822 -0.983506
2005-10-06 10:47:19 51°11.427 2°32.256 -999 4.356785 34.532565 -0.983506
2005-10-06 10:48:19 51°11.457 2°32.315 -999 4.360623 34.567323 -0.983506
2005-10-06 10:49:19 51°11.486 2°32.381 -999 4.360727 34.567532 -0.983506
2005-10-06 10:50:20 51°11.513 2°32.453 -999 4.360623 34.567323 -0.983506
2005-10-06 10:51:19 51°11.541 2°32.519 -999 4.360727 34.567532 -0.983506
2005-10-06 10:52:19 51°11.573 2°32.581 -999 4.361453 34.568284 -0.983506
2005-10-06 10:53:19 51°11.607 2°32.64 -999 4.362283 34.563559 -0.983506
2005-10-06 10:54:19 51°11.634 2°32.671 -999 4.362075 34.558877 -0.983506
2005-10-06 10:55:20 51°11.654 2°32.678 -999 4.361453 34.551938 -0.983506
2005-10-06 10:56:19 51°11.666 2°32.675 -999 4.361245 34.545837 -0.983506
2005-10-06 10:57:19 51°11.673 2°32.668 -999 4.360727 34.53627 -0.983506
2005-10-06 10:58:19 51°11.677 2°32.659 -999 4.359171 34.534545 -0.983506
2005-10-06 10:59:19 51°11.679 2°32.649 -999 4.3572 34.525591 -0.983506
2005-10-06 11:00:19 51°11.715 2°32.686 -999 4.356162 34.519232 -0.983506
2005-10-06 11:01:19 51°11.803 2°32.848 -999 4.351806 34.504732 -0.983506
2005-10-06 11:02:19 51°11.938 2°33.092 -999 4.347345 34.479356 -0.983506
2005-10-06 11:03:19 51°12.075 2°33.342 -999 4.340292 34.436624 -0.983506
2005-10-06 11:04:19 51°12.213 2°33.59 -999 4.331267 34.382033 -0.983506
2005-10-06 11:05:19 51°12.351 2°33.838 -999 4.321517 34.322358 -0.983506
2005-10-06 11:06:19 51°12.489 2°34.088 -999 4.31353 34.272634 -0.983506
2005-10-06 11:07:20 51°12.627 2°34.34 -999 4.305336 34.220321 -0.983506
2005-10-06 11:08:19 51°12.756 2°34.588 -999 4.294134 34.139812 -0.949796
2005-10-06 11:09:20 51°12.892 2°34.841 -999 4.28428 34.071955 -0.949796
2005-10-06 11:10:19 51°13.021 2°35.087 -999 4.28148 34.057626 -0.949796
2005-10-06 11:11:19 51°13.154 2°35.338 -999 4.280858 34.054206 -0.949796
2005-10-06 11:12:19 51°13.287 2°35.582 -999 4.276294 34.019252 -0.949796
2005-10-06 11:13:19 51°13.415 2°35.826 -999 4.258558 33.846836 -0.949796
2005-10-06 11:14:19 51°13.526 2°36.089 -999 4.248082 33.723083 -0.949796
2005-10-06 11:15:19 51°13.639 2°36.353 -999 4.239785 33.626542 -0.949796
2005-10-06 11:16:19 51°13.75 2°36.621 -999 4.23491 33.56601 -0.949796
2005-10-06 11:17:19 51°13.863 2°36.888 -999 4.228792 33.507671 -0.949796
2005-10-06 11:18:19 51°13.971 2°37.158 -999 4.215309 33.370432 -0.949796
2005-10-06 11:19:19 51°14.08 2°37.427 -999 4.203383 33.252637 -0.949796
2005-10-06 11:20:20 51°14.18 2°37.707 -999 4.191457 33.126795 -0.949796
2005-10-06 11:21:19 51°14.185 2°38.025 -999 4.181916 33.016761 -0.949796
2005-10-06 11:22:19 51°14.17 2°38.355 -999 4.174865 32.968846 -0.949796
2005-10-06 11:23:19 51°14.109 2°38.674 -999 4.172792 32.974999 -0.949796
2005-10-06 11:24:19 51°13.903 2°38.775 -999 4.181295 33.057536 -0.949796
2005-10-06 11:25:20 51°13.671 2°38.729 -999 4.19011 33.160663 -0.949796
2005-10-06 11:26:19 51°13.455 2°38.636 -999 4.190939 33.174156 -0.983506
2005-10-06 11:27:19 51°13.251 2°38.466 -999 4.217385 33.477175 -0.949796
2005-10-06 11:28:19 51°13.046 2°38.302 -999 4.223712 33.579146 -0.949796
2005-10-06 11:29:19 51°12.841 2°38.136 -999 4.220808 33.563089 -0.949796
2005-10-06 11:30:19 51°12.636 2°37.97 -999 4.209608 33.483726 -0.949796
2005-10-06 11:31:19 51°12.432 2°37.801 -999 4.201727 33.431728 -0.949796
2005-10-06 11:32:20 51°12.223 2°37.635 -999 4.199238 33.40406 -0.949796
2005-10-06 11:33:20 51°12.018 2°37.47 -999 4.20069 33.410722 -0.949796
2005-10-06 11:34:19 51°11.821 2°37.299 -999 4.198616 33.397838 -0.916087
2005-10-06 11:35:19 51°11.626 2°37.108 -999 4.196023 33.378265 -0.916087
2005-10-06 11:36:20 51°11.425 2°36.916 -999 4.20463 33.438107 -0.949796
2005-10-06 11:37:19 51°11.234 2°36.729 -999 4.220808 33.570048 -0.949796
2005-10-06 11:38:19 51°11.039 2°36.544 -999 4.235327 33.690734 -0.916087
2005-10-06 11:39:19 51°10.843 2°36.362 -999 4.245802 33.769871 -0.949796
2005-10-06 11:40:19 51°10.65 2°36.176 -999 4.256173 33.841753 -0.949796
2005-10-06 11:41:20 51°10.454 2°35.987 -999 4.267789 33.929564 -0.949796
2005-10-06 11:42:19 51°10.264 2°35.804 -999 4.278472 34.007641 -0.983506
2005-10-06 11:43:20 51°10.068 2°35.622 -999 4.294341 34.126834 -0.949796
2005-10-06 11:44:19 51°9.88 2°35.447 -999 4.30129 34.176592 -0.949796
2005-10-06 11:45:20 51°9.688 2°35.265 -999 4.316019 34.272813 -0.983506
2005-10-06 11:46:19 51°9.505 2°35.092 -999 4.343922 34.446141 -0.983506
2005-10-06 11:47:19 51°9.319 2°34.914 -999 4.350665 34.502421 -0.983506
2005-10-06 11:48:20 51°9.13 2°34.736 -999 4.338322 34.477399 -0.983506
2005-10-06 11:49:19 51°8.948 2°34.564 -999 4.321622 34.422791 -0.983506
2005-10-06 11:50:20 51°8.824 2°34.461 -999 4.31042 34.3764 -0.949796
2005-10-06 11:51:19 51°8.757 2°34.478 -999 4.305234 34.349384 -0.983506
2005-10-06 11:52:20 51°8.732 2°34.557 -999 4.303678 34.336926 -0.983506
2005-10-06 11:53:19 51°8.754 2°34.642 -999 4.30067 34.315784 -0.983506
2005-10-06 11:54:19 51°8.796 2°34.729 -999 4.29787 34.298628 -0.983506
2005-10-06 11:55:19 51°8.831 2°34.823 -999 4.297559 34.285167 -0.983506
2005-10-06 11:56:19 51°8.86 2°34.913 -999 4.297766 34.28417 -0.983506
2005-10-06 11:57:19 51°8.888 2°34.993 -999 4.297351 34.279757 -0.983506
2005-10-06 11:58:19 51°8.91 2°35.066 -999 4.297247 34.276696 -0.983506
2005-10-06 11:59:20 51°8.925 2°35.135 -999 4.298181 34.276484 -0.983506
2005-10-06 12:00:19 51°8.937 2°35.198 -999 4.298492 34.277837 -0.983506
2005-10-06 12:01:19 51°8.952 2°35.266 -999 4.298284 34.271719 -0.949796
2005-10-06 12:02:19 51°8.966 2°35.344 -999 4.297973 34.257569 -0.983506
2005-10-06 12:03:19 51°8.978 2°35.423 -999 4.297351 34.257707 -0.983506
2005-10-06 12:04:19 51°8.99 2°35.499 -999 4.297039 34.251379 -0.983506
2005-10-06 12:05:20 51°9.002 2°35.575 -999 4.296832 34.244557 -0.983506
2005-10-06 12:06:20 51°9.014 2°35.65 -999 4.295172 34.233315 -0.983506
2005-10-06 12:07:19 51°9.027 2°35.723 -999 4.293305 34.212416 -0.983506
2005-10-06 12:08:19 51°9.039 2°35.798 -999 4.291438 34.192232 -0.983506
2005-10-06 12:09:19 51°9.052 2°35.872 -999 4.290194 34.181851 -0.983506
2005-10-06 12:10:19 51°9.064 2°35.947 -999 4.28926 34.172116 -0.983506
2005-10-06 12:11:19 51°9.077 2°36.021 -999 4.288015 34.163153 -0.983506
2005-10-06 12:12:20 51°9.091 2°36.099 -999 4.286874 34.155113 -0.983506
2005-10-06 12:13:20 51°9.104 2°36.176 -999 4.285837 34.147997 -0.983506
2005-10-06 12:14:20 51°9.118 2°36.253 -999 4.284489 34.141649 -0.983506
2005-10-06 12:15:20 51°9.132 2°36.33 -999 4.283763 34.135179 -0.983506
2005-10-06 12:16:19 51°9.145 2°36.406 -999 4.283244 34.133391 -0.983506
2005-10-06 12:17:19 51°9.158 2°36.485 -999 4.282518 34.128337 -0.983506
2005-10-06 12:18:19 51°9.171 2°36.564 -999 4.282103 34.125348 -0.983506
2005-10-06 12:19:19 51°9.185 2°36.643 -999 4.281792 34.122575 -0.983506
2005-10-06 12:20:20 51°9.199 2°36.725 -999 4.281481 34.119094 -0.983506
2005-10-06 12:21:19 51°9.214 2°36.804 -999 4.281274 34.11583 -0.983506
2005-10-06 12:22:20 51°9.229 2°36.89 -999 4.280755 34.112625 -0.983506
2005-10-06 12:23:20 51°9.243 2°36.976 -999 4.28034 34.111051 -0.983506
2005-10-06 12:24:20 51°9.258 2°37.054 -999 4.280236 34.109419 -0.983506
2005-10-06 12:25:19 51°9.272 2°37.137 -999 4.279822 34.109969 -0.983506
2005-10-06 12:26:19 51°9.287 2°37.221 -999 4.279614 34.108828 -0.983506
2005-10-06 12:27:19 51°9.302 2°37.305 -999 4.279199 34.107962 -0.983506
2005-10-06 12:28:20 51°9.317 2°37.39 -999 4.278888 34.105189 -0.983506
2005-10-06 12:29:20 51°9.33 2°37.476 -999 4.278577 34.103124 -0.983506
2005-10-06 12:30:19 51°9.338 2°37.557 -999 4.278266 34.102474 -0.983506
2005-10-06 12:31:20 51°9.344 2°37.64 -999 4.278266 34.099643 -0.983506
2005-10-06 12:32:19 51°9.347 2°37.722 -999 4.277644 34.096927 -0.983506
2005-10-06 12:33:20 51°9.35 2°37.813 -999 4.277436 34.094371 -0.983506
2005-10-06 12:34:19 51°9.354 2°37.893 -999 4.277021 34.089965 -0.983506
2005-10-06 12:35:20 51°9.361 2°37.965 -999 4.276192 34.086108 -0.983506
2005-10-06 12:36:20 51°9.367 2°38.028 -999 4.275984 34.084259 -0.983506
2005-10-06 12:37:19 51°9.372 2°38.108 -999 4.275362 34.080835 -0.983506
2005-10-06 12:38:20 51°9.374 2°38.237 -999 4.274325 34.077958 -0.983506
2005-10-06 12:39:19 51°9.373 2°38.375 -999 4.272873 34.066429 -0.983506
2005-10-06 12:40:20 51°9.374 2°38.509 -999 4.270072 34.045001 -0.983506
2005-10-06 12:41:19 51°9.375 2°38.633 -999 4.266961 34.014441 -0.983506
2005-10-06 12:42:20 51°9.376 2°38.757 -999 4.264575 33.990358 -0.983506
2005-10-06 12:43:20 51°9.383 2°38.868 -999 4.260634 33.952422 -0.983506
2005-10-06 12:44:20 51°9.397 2°38.967 -999 4.257937 33.918543 -0.983506
2005-10-06 12:45:19 51°9.414 2°39.056 -999 4.256485 33.892953 -0.983506
2005-10-06 12:46:20 51°9.432 2°39.143 -999 4.254929 33.875593 -0.983506
2005-10-06 12:47:20 51°9.449 2°39.226 -999 4.253996 33.865178 -0.983506
2005-10-06 12:48:19 51°9.464 2°39.306 -999 4.252958 33.852439 -0.983506
2005-10-06 12:49:20 51°9.48 2°39.389 -999 4.251299 33.838377 -0.983506
2005-10-06 12:50:19 51°9.495 2°39.468 -999 4.24881 33.819739 -0.983506
2005-10-06 12:51:20 51°9.51 2°39.551 -999 4.248914 33.815752 -0.983506
2005-10-06 12:52:19 51°9.524 2°39.629 -999 4.247358 33.806119 -0.983506
2005-10-06 12:53:20 51°9.538 2°39.71 -999 4.248395 33.810438 -0.983506
2005-10-06 12:54:20 51°9.554 2°39.789 -999 4.247254 33.806599 -0.983506
2005-10-06 12:55:19 51°9.569 2°39.866 -999 4.246632 33.801764 -0.983506
2005-10-06 12:56:20 51°9.585 2°39.947 -999 4.245491 33.794418 -0.983506
2005-10-06 12:57:19 51°9.601 2°40.024 -999 4.244454 33.787293 -0.983506
2005-10-06 12:58:20 51°9.618 2°40.104 -999 4.243521 33.777587 -0.983506
2005-10-06 12:59:20 51°9.634 2°40.184 -999 4.242795 33.77253 -0.983506
2005-10-06 13:00:20 51°9.649 2°40.263 -999 4.242172 33.770496 -0.983506
2005-10-06 13:01:19 51°9.665 2°40.339 -999 4.241447 33.766138 -0.983506
2005-10-06 13:02:19 51°9.684 2°40.416 -999 4.240617 33.759457 -0.983506
2005-10-06 13:03:20 51°9.703 2°40.494 -999 4.240098 33.754843 -0.983506
2005-10-06 13:04:20 51°9.723 2°40.57 -999 4.239476 33.747206 -0.983506
2005-10-06 13:05:20 51°9.743 2°40.647 -999 4.238543 33.738902 -0.983506
2005-10-06 13:06:20 51°9.763 2°40.722 -999 4.23792 33.738266 -0.983506
2005-10-06 13:07:20 51°9.784 2°40.797 -999 4.238335 33.746158 -0.983506
2005-10-06 13:08:20 51°9.805 2°40.873 -999 4.238854 33.754275 -0.983506
2005-10-06 13:09:20 51°9.826 2°40.948 -999 4.238128 33.749915 -0.983506
2005-10-06 13:10:20 51°9.847 2°41.024 -999 4.238335 33.751761 -0.949796
2005-10-06 13:11:20 51°9.868 2°41.098 -999 4.237817 33.749248 -0.983506
2005-10-06 13:12:19 51°9.885 2°41.171 -999 4.238647 33.758034 -0.949796
2005-10-06 13:13:19 51°9.896 2°41.246 -999 4.239995 33.777047 -0.916087
2005-10-06 13:14:20 51°9.901 2°41.323 -999 4.241032 33.790491 -0.949796
2005-10-06 13:15:20 51°9.906 2°41.402 -999 4.23761 33.753707 -0.949796
2005-10-06 13:16:20 51°9.911 2°41.476 -999 4.237402 33.748357 -0.949796
2005-10-06 13:17:20 51°9.916 2°41.541 -999 4.236261 33.731901 -0.949796
2005-10-06 13:18:20 51°9.921 2°41.602 -999 4.240928 33.76783 -0.949796
2005-10-06 13:19:20 51°9.925 2°41.657 -999 4.239372 33.744883 -0.949796
2005-10-06 13:20:20 51°9.929 2°41.709 -999 4.24072 33.749177 -0.949796
2005-10-06 13:21:20 51°9.928 2°41.798 -999 4.243935 33.772172 -0.949796
2005-10-06 13:22:19 51°9.944 2°41.989 -999 4.24601 33.786418 -0.949796
2005-10-06 13:23:20 51°9.984 2°42.269 -999 4.250573 33.810185 -0.949796
2005-10-06 13:24:19 51°10.03 2°42.555 -999 4.254825 33.858519 -0.916087
2005-10-06 13:25:20 51°10.046 2°42.854 -999 4.255655 33.901039 -0.814958
2005-10-06 13:26:20 51°10.096 2°43.137 -999 4.24767 33.892548 -0.814958
2005-10-06 13:27:20 51°10.142 2°43.423 -999 4.239892 33.852757 -0.814958
2005-10-06 13:28:20 51°10.169 2°43.717 -999 4.2345 33.827172 -0.814958
2005-10-06 13:29:20 51°10.203 2°44.01 -999 4.224544 33.774894 -0.814958
2005-10-06 13:30:20 51°10.238 2°44.304 -999 4.218115 33.728711 -0.848668
2005-10-06 13:31:20 51°10.277 2°44.582 -999 4.209922 33.670274 -0.848668
2005-10-06 13:32:20 51°10.316 2°44.771 -999 4.199241 33.597989 -0.781249
2005-10-06 13:33:20 51°10.338 2°44.915 -999 4.192812 33.551039 -0.814958
2005-10-06 13:34:20 51°10.35 2°45.041 -999 4.190116 33.526938 -0.814958
2005-10-06 13:35:20 51°10.363 2°45.152 -999 4.186797 33.497278 -0.814958
2005-10-06 13:36:20 51°10.381 2°45.243 -999 4.18379 33.471103 -0.814958
2005-10-06 13:37:20 51°10.4 2°45.32 -999 4.181509 33.453513 -0.814958
2005-10-06 13:38:19 51°10.422 2°45.388 -999 4.180057 33.444035 -0.814958
2005-10-06 13:39:20 51°10.449 2°45.457 -999 4.179538 33.438004 -0.814958
2005-10-06 13:40:20 51°10.478 2°45.525 -999 4.179331 33.434752 -0.814958
2005-10-06 13:41:20 51°10.508 2°45.593 -999 4.179953 33.43542 -0.814958
2005-10-06 13:42:20 51°10.537 2°45.661 -999 4.180886 33.437469 -0.814958
2005-10-06 13:43:20 51°10.566 2°45.73 -999 4.182027 33.442069 -0.814958
2005-10-06 13:44:20 51°10.596 2°45.798 -999 4.183168 33.447367 -0.814958
2005-10-06 13:45:20 51°10.626 2°45.866 -999 4.184204 33.450341 -0.814958
2005-10-06 13:46:20 51°10.655 2°45.938 -999 4.184827 33.450309 -0.814958
2005-10-06 13:47:20 51°10.681 2°46.011 -999 4.185552 33.451901 -0.781249
2005-10-06 13:48:20 51°10.707 2°46.083 -999 4.18576 33.453054 -0.814958
2005-10-06 13:49:20 51°10.735 2°46.152 -999 4.186589 33.452779 -0.848668
2005-10-06 13:50:20 51°10.767 2°46.225 -999 4.1869 33.452763 -0.848668
2005-10-06 13:51:20 51°10.798 2°46.297 -999 4.186797 33.449744 -0.848668
2005-10-06 13:52:20 51°10.829 2°46.361 -999 4.186174 33.440702 -0.848668
2005-10-06 13:53:20 51°10.866 2°46.431 -999 4.183789 33.42221 -0.814958
2005-10-06 13:54:20 51°10.902 2°46.512 -999 4.180575 33.393527 -0.814958
2005-10-06 13:55:20 51°10.932 2°46.601 -999 4.176115 33.344704 -0.848668
2005-10-06 13:56:20 51°10.958 2°46.691 -999 4.171241 33.283891 -0.848668
2005-10-06 13:57:20 51°10.985 2°46.772 -999 4.164397 33.202842 -0.882377
2005-10-06 13:58:20 51°11.015 2°46.847 -999 4.162323 33.171942 -0.882377
2005-10-06 13:59:20 51°11.047 2°46.916 -999 4.16336 33.182552 -0.882377
2005-10-06 14:00:20 51°11.081 2°46.983 -999 4.162219 33.165495 -0.916087
2005-10-06 14:01:20 51°11.117 2°47.047 -999 4.160042 33.138533 -0.916087
2005-10-06 14:02:20 51°11.152 2°47.112 -999 4.158798 33.131602 -0.916087
2005-10-06 14:03:20 51°11.186 2°47.178 -999 4.159627 33.141741 -0.916087
2005-10-06 14:04:20 51°11.216 2°47.248 -999 4.159731 33.148873 -0.882377
2005-10-06 14:05:20 51°11.245 2°47.319 -999 4.158176 33.134343 -0.882377
2005-10-06 14:06:20 51°11.275 2°47.39 -999 4.156413 33.11728 -0.916087
2005-10-06 14:07:20 51°11.306 2°47.461 -999 4.155168 33.10621 -0.916087
2005-10-06 14:08:20 51°11.349 2°47.55 -999 4.154961 33.100231 -0.882377
2005-10-06 14:09:20 51°11.397 2°47.659 -999 4.153924 33.091008 -0.882377
2005-10-06 14:10:20 51°11.444 2°47.778 -999 4.152472 33.078096 -0.882377
2005-10-06 14:11:20 51°11.489 2°47.899 -999 4.14988 33.059169 -0.882377
2005-10-06 14:12:20 51°11.529 2°47.989 -999 4.144592 32.999775 -0.882377
2005-10-06 14:13:20 51°11.563 2°48.058 -999 4.141896 32.962096 -0.882377
2005-10-06 14:14:20 51°11.63 2°48.171 -999 4.141377 32.961603 -0.882377
2005-10-06 14:15:20 51°11.754 2°48.425 -999 4.148014 33.029506 -0.848668
2005-10-06 14:16:20 51°11.882 2°48.701 -999 4.140652 32.989464 -0.781249
2005-10-06 14:17:20 51°12.011 2°48.976 -999 4.121885 32.829436 -0.781249
2005-10-06 14:18:20 51°12.13 2°49.237 -999 4.1054 32.693146 -0.74754
2005-10-06 14:19:20 51°12.252 2°49.481 -999 4.090574 32.574324 -0.74754
2005-10-06 14:20:20 51°12.375 2°49.725 -999 4.088293 32.56356 -0.71383
2005-10-06 14:21:20 51°12.495 2°49.976 -999 4.091922 32.589016 -0.814958
2005-10-06 14:22:20 51°12.617 2°50.228 -999 4.075126 32.434411 -0.882377
2005-10-06 14:23:20 51°12.739 2°50.478 -999 4.048691 32.209213 -0.848668
2005-10-06 14:24:20 51°12.861 2°50.729 -999 4.043715 32.160379 -0.74754
2005-10-06 14:25:20 51°12.983 2°50.98 -999 4.033141 32.051261 -0.781249
2005-10-06 14:26:20 51°13.096 2°51.241 -999 4.023396 31.963605 -0.781249
2005-10-06 14:27:20 51°13.205 2°51.507 -999 4.02236 31.944447 -0.511574
2005-10-06 14:28:20 51°13.293 2°51.718 -999 4.017695 31.903151 -0.410446
2005-10-06 14:29:20 51°13.366 2°51.892 -999 4.015104 31.886849 -0.444155
2005-10-06 14:30:20 51°13.488 2°52.184 -999 4.014793 31.882105 -0.511574
2005-10-06 14:31:20 51°13.621 2°52.494 -999 4.012201 31.860492 -0.511574
2005-10-06 14:32:20 51°13.749 2°52.798 -999 4.008469 31.826799 -0.444155
2005-10-06 14:33:20 51°13.872 2°53.075 -999 4.006189 31.808604 -0.444155
2005-10-06 14:34:20 51°13.975 2°53.309 -999 4.004841 31.793369 -0.612702
2005-10-06 14:35:20 51°14.08 2°53.556 -999 4.002043 31.7653 -0.680121
2005-10-06 14:36:20 51°14.183 2°53.791 -999 3.998829 31.724989 -0.71383
2005-10-06 14:37:20 51°14.27 2°53.99 -999 3.996549 31.691641 -0.74754
2005-10-06 14:38:20 51°14.352 2°54.195 -999 3.995719 31.679043 -0.74754
2005-10-06 14:39:20 51°14.419 2°54.425 -999 3.995201 31.669197 -0.781249
2005-10-06 14:40:20 51°14.452 2°54.653 -999 3.993024 31.646679 -0.680121
2005-10-06 14:41:20 51°14.429 2°54.86 -999 3.989603 31.609244 -0.545283
2005-10-06 14:42:20 51°14.376 2°55.048 -999 3.987323 31.581237 -0.646411
2005-10-06 14:43:20 51°14.297 2°55.221 -999 3.95913 31.31889 -0.71383
2005-10-06 14:44:20 51°14.201 2°55.361 -999 1.795233 13.142316 -0.343027
2005-10-06 14:45:20 51°14.082 2°55.452 -999 0.058601 0.349167 -0.343027
2005-10-06 14:46:20 51°13.948 2°55.547 -999 0.049752 0.294878 -0.343027
2005-10-06 14:47:20 51°13.808 2°55.652 -999 0.045636 0.269769 -0.343027
2005-10-06 14:48:20 51°13.715 2°55.785 -999 0.043064 0.254103 -0.343027
2005-10-06 14:49:20 51°13.663 2°55.896 -999 0.041109 0.242214 -0.343027
2005-10-06 14:50:20 51°13.629 2°55.993 -999 0.039565 0.232833 -0.343027
2005-10-06 14:51:20 51°13.615 2°56.058 -999 0.038331 0.225328 -0.376736
2005-10-06 14:52:20 51°13.605 2°56.093 -999 0.036993 0.217227 -0.343027